TimeCST,TemperatureF,Dew PointF,Humidity,Sea Level PressureIn,VisibilityMPH,Wind Direction,Wind SpeedMPH,Gust SpeedMPH,PrecipitationIn,Events,Conditions,WindDirDegrees,DateUTC
12:53 AM,21.9,19.0,89,30.10,7.0,Calm,Calm,-,N/A,,Overcast,0,2012-12-08 06:53:00
1:53 AM,23.0,19.0,85,30.10,8.0,Calm,Calm,-,N/A,,Overcast,0,2012-12-08 07:53:00
2:53 AM,23.0,18.0,81,30.10,10.0,NE,3.5,-,N/A,,Overcast,40,2012-12-08 08:53:00
3:53 AM,23.0,18.0,81,30.10,10.0,NE,3.5,-,N/A,,Overcast,40,2012-12-08 09:53:00
4:53 AM,23.0,17.6,80,30.03,10.0,Calm,Calm,-,N/A,,Overcast,0,2012-12-08 10:53:00
5:04 AM,23.0,17.6,80,30.03,10.0,Calm,Calm,-,N/A,,Overcast,0,2012-12-08 11:04:00
5:53 AM,23.0,17.1,78,30.11,10.0,ESE,3.5,-,N/A,,Overcast,110,2012-12-08 11:53:00
6:53 AM,23.0,18.0,81,30.10,10.0,Calm,Calm,-,N/A,,Overcast,0,2012-12-08 12:53:00
7:53 AM,23.0,18.0,81,30.10,10.0,Calm,Calm,-,N/A,,Overcast,0,2012-12-08 13:53:00
8:53 AM,23.0,18.0,81,30.10,10.0,ESE,3.5,-,N/A,,Overcast,110,2012-12-08 14:53:00
9:50 AM,24.8,19.4,80,30.04,10.0,East,3.5,-,N/A,,Overcast,100,2012-12-08 15:50:00
9:53 AM,24.1,19.0,81,30.11,10.0,ESE,3.5,-,N/A,,Overcast,110,2012-12-08 15:53:00
10:53 AM,26.1,21.0,81,30.11,10.0,SE,4.6,-,N/A,,Overcast,140,2012-12-08 16:53:00
11:53 AM,28.0,21.9,78,30.09,9.0,SSE,5.8,-,0.01,,Scattered Clouds,160,2012-12-08 17:53:00
12:53 PM,28.9,23.0,78,30.07,10.0,SE,4.6,-,N/A,,Scattered Clouds,130,2012-12-08 18:53:00
1:53 PM,30.0,23.0,75,30.07,10.0,SE,5.8,-,N/A,,Mostly Cloudy,140,2012-12-08 19:53:00
2:53 PM,30.0,23.0,75,30.05,8.0,ESE,6.9,-,N/A,,Overcast,120,2012-12-08 20:53:00
3:51 PM,28.4,23.0,80,29.97,7.0,ESE,3.5,-,N/A,,Scattered Clouds,110,2012-12-08 21:51:00
3:53 PM,28.9,23.0,78,30.04,7.0,ESE,3.5,-,N/A,,Partly Cloudy,110,2012-12-08 21:53:00
4:53 PM,28.0,23.0,81,30.05,8.0,Calm,Calm,-,N/A,,Clear,0,2012-12-08 22:53:00
5:53 PM,26.1,23.0,88,30.06,6.0,Calm,Calm,-,N/A,,Clear,0,2012-12-08 23:53:00
6:53 PM,26.6,23.0,86,29.99,6.0,ENE,3.5,-,N/A,,Clear,70,2012-12-09 00:53:00
7:53 PM,27.0,23.0,85,30.06,7.0,East,4.6,-,N/A,,Clear,80,2012-12-09 01:53:00
8:53 PM,28.4,23.0,80,29.98,10.0,East,5.8,-,N/A,,Overcast,100,2012-12-09 02:53:00
9:53 PM,28.9,23.0,78,30.05,10.0,East,6.9,-,N/A,,Overcast,90,2012-12-09 03:53:00
10:53 PM,30.0,23.0,75,30.06,9.0,East,5.8,-,0.00,Snow,Light Snow,90,2012-12-09 04:53:00
11:17 PM,30.2,24.8,80,30.00,1.8,East,5.8,-,0.00,Snow,Light Snow,90,2012-12-09 05:17:00
11:53 PM,28.9,26.1,89,30.06,1.2,East,6.9,-,0.01,Snow,Light Snow,90,2012-12-09 05:53:00